Time;durP1;ratioP1;P1;durP2;ratioP2;P2;SDS_P1;SDS_P2;PMS_P1;PMS_P2;Temp;Humidity;BMP_temperature;BMP_pressure;BME280_temperature;BME280_humidity;BME280_pressure;Samples;Min_cycle;Max_cycle;Signal;HPM_P1;HPM_P2
2022/04/06 00:01:36;;;;;;;37.90;21.88;;;;;;;-145.70;100.00;64261.84;5020109;28;20049;-81
2022/04/06 00:04:01;;;;;;;31.40;19.52;;;;;;;-145.70;100.00;64261.84;5015619;28;20179;-81
2022/04/06 00:06:27;;;;;;;33.08;18.35;;;;;;;-145.70;100.00;64261.84;5012864;28;20057;-81
2022/04/06 00:08:52;;;;;;;32.47;16.25;;;;;;;-145.70;100.00;64261.84;5011977;28;20046;-81
2022/04/06 00:11:17;;;;;;;34.58;20.25;;;;;;;-145.70;100.00;64261.84;5015840;28;20594;-82
2022/04/06 00:13:43;;;;;;;38.38;19.52;;;;;;;-145.70;100.00;64261.84;5019283;28;20508;-82
2022/04/06 00:16:08;;;;;;;36.42;16.55;;;;;;;-145.70;100.00;64261.84;5024438;28;20549;-81
2022/04/06 00:18:34;;;;;;;40.85;19.45;;;;;;;-145.70;100.00;64261.84;5019597;28;20518;-81
2022/04/06 00:20:59;;;;;;;38.25;17.17;;;;;;;-145.70;100.00;64261.84;5018136;28;20171;-81
2022/04/06 00:23:25;;;;;;;34.65;19.45;;;;;;;-145.70;100.00;64261.84;5015202;28;20682;-81
2022/04/06 00:25:50;;;;;;;42.22;19.35;;;;;;;-145.70;100.00;64261.84;5019207;28;20029;-81
2022/04/06 00:28:16;;;;;;;29.75;13.90;;;;;;;-145.70;100.00;64261.84;5015598;28;20060;-81
2022/04/06 00:30:41;;;;;;;38.20;17.50;;;;;;;-145.70;100.00;64261.84;5019985;28;20045;-81
2022/04/06 00:33:06;;;;;;;36.75;16.38;;;;;;;-145.70;100.00;64261.84;5003135;28;20140;-81
2022/04/06 00:35:32;;;;;;;36.85;17.65;;;;;;;-145.70;100.00;64261.84;5021193;28;20096;-81
2022/04/06 00:38:03;;;;;;;32.38;17.15;;;;;;;-145.70;100.00;64261.84;5001483;28;20048;-81
2022/04/06 00:40:29;;;;;;;31.17;14.20;;;;;;;-145.70;100.00;64261.84;5008490;28;20054;-81
2022/04/06 00:42:55;;;;;;;35.17;16.63;;;;;;;-145.70;100.00;64261.84;4998673;28;20608;-81
2022/04/06 00:45:22;;;;;;;27.05;14.80;;;;;;;-145.70;100.00;64261.84;5004224;28;20153;-81
2022/04/06 00:47:49;;;;;;;37.63;16.50;;;;;;;-145.70;100.00;64261.84;5003454;28;20046;-81
2022/04/06 00:50:14;;;;;;;33.38;18.27;;;;;;;-145.70;100.00;64261.84;4999271;28;20497;-81
2022/04/06 00:52:40;;;;;;;34.17;16.05;;;;;;;-145.70;100.00;64261.84;5002442;28;20076;-81
2022/04/06 00:55:07;;;;;;;33.90;17.35;;;;;;;-145.70;100.00;64261.84;4990696;28;20041;-81
2022/04/06 00:57:33;;;;;;;31.15;13.68;;;;;;;-145.70;100.00;64261.84;5000731;28;20065;-81
2022/04/06 00:59:58;;;;;;;26.83;14.07;;;;;;;-145.70;100.00;64261.84;5002089;28;20033;-81
2022/04/06 01:02:24;;;;;;;30.38;15.07;;;;;;;-145.70;100.00;64261.84;5000965;28;20475;-81
2022/04/06 01:04:49;;;;;;;28.05;15.43;;;;;;;-145.70;100.00;64261.84;4998562;28;20049;-81
2022/04/06 01:07:15;;;;;;;32.72;15.27;;;;;;;-145.70;100.00;64261.84;4996897;28;20073;-81
2022/04/06 01:09:40;;;;;;;31.58;14.43;;;;;;;-145.70;100.00;64261.84;5002944;28;20038;-81
2022/04/06 01:12:06;;;;;;;29.00;12.95;;;;;;;-145.70;100.00;64261.84;4993973;28;20494;-81
2022/04/06 01:14:32;;;;;;;33.40;13.85;;;;;;;-145.70;100.00;64261.84;5000389;28;20083;-81
2022/04/06 01:16:59;;;;;;;31.63;14.13;;;;;;;-145.70;100.00;64261.84;4999433;28;20041;-81
2022/04/06 01:19:36;;;;;;;28.90;14.90;;;;;;;-145.70;100.00;64261.84;4999393;28;20062;-81
2022/04/06 01:22:13;;;;;;;25.88;13.98;;;;;;;-145.70;100.00;64261.84;4997891;28;20050;-81
2022/04/06 01:24:40;;;;;;;31.48;14.48;;;;;;;-145.70;100.00;64261.84;5013381;28;20029;-81
2022/04/06 01:27:07;;;;;;;28.80;13.25;;;;;;;-145.70;100.00;64261.84;5020665;28;20109;-81
2022/04/06 01:29:32;;;;;;;29.23;14.27;;;;;;;-145.70;100.00;64261.84;5021741;28;20137;-81
2022/04/06 01:32:12;;;;;;;23.60;11.07;;;;;;;-145.70;100.00;64261.84;5017577;28;20136;-81
2022/04/06 01:34:39;;;;;;;30.80;14.02;;;;;;;-145.70;100.00;64261.84;5004703;28;20038;-82
2022/04/06 01:37:06;;;;;;;35.85;11.57;;;;;;;-145.70;100.00;64261.84;4998796;28;20029;-81
2022/04/06 01:39:32;;;;;;;21.70;10.55;;;;;;;-145.70;100.00;64261.84;5020740;28;20045;-82
2022/04/06 01:41:58;;;;;;;28.48;12.00;;;;;;;-145.70;100.00;64261.84;5012859;28;20052;-81
2022/04/06 01:44:23;;;;;;;21.42;11.15;;;;;;;-145.70;100.00;64261.84;5017384;28;20045;-81
2022/04/06 01:46:50;;;;;;;27.88;12.43;;;;;;;-145.70;100.00;64261.84;5013776;28;20769;-81
2022/04/06 01:52:12;;;;;;;26.05;10.63;;;;;;;-145.70;100.00;64261.84;5015263;28;20206;-80
2022/04/06 01:54:48;;;;;;;24.55;10.88;;;;;;;-145.70;100.00;64261.84;5021209;28;20128;-81
2022/04/06 01:57:14;;;;;;;25.15;11.60;;;;;;;-145.70;100.00;64261.84;5013173;28;20069;-81
2022/04/06 01:59:41;;;;;;;19.95;9.63;;;;;;;-145.70;100.00;64261.84;5012973;28;20052;-81
2022/04/06 02:02:08;;;;;;;22.65;11.85;;;;;;;-145.70;100.00;64261.84;5012003;28;20043;-81
2022/04/06 02:04:34;;;;;;;27.83;13.23;;;;;;;-145.70;100.00;64261.84;5012187;28;20051;-81
2022/04/06 02:06:59;;;;;;;25.85;13.43;;;;;;;-145.70;100.00;64261.84;5017875;28;20132;-81
2022/04/06 02:09:25;;;;;;;24.58;14.27;;;;;;;-145.70;100.00;64261.84;5020581;28;20069;-81
2022/04/06 02:11:50;;;;;;;27.15;12.93;;;;;;;-145.70;100.00;64261.84;5021831;28;20041;-81
2022/04/06 02:14:16;;;;;;;30.27;10.75;;;;;;;-145.70;100.00;64261.84;5009655;28;20045;-81
2022/04/06 02:16:43;;;;;;;22.30;10.55;;;;;;;-145.70;100.00;64261.84;5015657;28;20054;-81
2022/04/06 02:19:09;;;;;;;28.35;11.80;;;;;;;-145.70;100.00;64261.84;5014817;28;20490;-81
2022/04/06 02:21:34;;;;;;;22.63;10.55;;;;;;;-145.70;100.00;64261.84;5021136;28;20041;-81
2022/04/06 02:24:00;;;;;;;24.75;11.25;;;;;;;-145.70;100.00;64261.84;5017496;28;20375;-81
2022/04/06 02:26:27;;;;;;;23.35;13.30;;;;;;;-145.70;100.00;64261.84;5017893;28;20579;-81
2022/04/06 02:28:53;;;;;;;24.15;11.93;;;;;;;-145.70;100.00;64261.84;5017947;28;20057;-81
2022/04/06 02:31:18;;;;;;;27.13;13.63;;;;;;;-145.70;100.00;64261.84;5014300;28;20140;-81
2022/04/06 02:33:44;;;;;;;29.48;12.73;;;;;;;-145.70;100.00;64261.84;5016948;28;21093;-81
2022/04/06 02:36:09;;;;;;;25.45;11.98;;;;;;;-145.70;100.00;64261.84;5020011;28;20037;-81
2022/04/06 02:38:38;;;;;;;22.58;12.70;;;;;;;-145.70;100.00;64261.84;5014563;28;20041;-80
2022/04/06 02:41:08;;;;;;;27.50;13.15;;;;;;;-145.70;100.00;64261.84;5014851;28;20050;-80
2022/04/06 02:43:33;;;;;;;29.35;14.50;;;;;;;-145.70;100.00;64261.84;5016575;28;20131;-80
2022/04/06 02:45:59;;;;;;;23.85;11.75;;;;;;;-145.70;100.00;64261.84;5016306;28;22007;-81
2022/04/06 02:48:24;;;;;;;29.65;14.05;;;;;;;-145.70;100.00;64261.84;5016297;28;20061;-81
2022/04/06 02:50:49;;;;;;;28.48;12.30;;;;;;;-145.70;100.00;64261.84;5013219;28;20033;-80
2022/04/06 02:53:15;;;;;;;25.77;12.30;;;;;;;-145.70;100.00;64261.84;5012313;28;20058;-81
2022/04/06 02:55:40;;;;;;;23.67;14.02;;;;;;;-145.70;100.00;64261.84;5015152;28;20040;-81
2022/04/06 02:58:06;;;;;;;23.52;12.65;;;;;;;-145.70;100.00;64261.84;5017532;28;20066;-81
2022/04/06 03:00:32;;;;;;;28.65;14.15;;;;;;;-145.70;100.00;64261.84;5015201;28;20048;-81
2022/04/06 03:02:58;;;;;;;24.30;11.63;;;;;;;-145.70;100.00;64261.84;5013291;28;20045;-81
2022/04/06 03:05:25;;;;;;;26.13;11.82;;;;;;;-145.70;100.00;64261.84;5017834;28;20080;-80
2022/04/06 03:07:50;;;;;;;19.77;10.68;;;;;;;-145.70;100.00;64261.84;5017421;28;20124;-81
2022/04/06 03:10:16;;;;;;;24.75;11.23;;;;;;;-145.70;100.00;64261.84;5014127;28;20180;-81
2022/04/06 03:12:41;;;;;;;25.38;11.13;;;;;;;-145.70;100.00;64261.84;5013042;28;20497;-81
2022/04/06 03:15:07;;;;;;;24.77;12.68;;;;;;;-145.70;100.00;64261.84;5016528;28;20044;-81
2022/04/06 03:17:32;;;;;;;23.15;9.23;;;;;;;-145.70;100.00;64261.84;5016781;28;20116;-81
2022/04/06 03:19:58;;;;;;;22.52;12.20;;;;;;;-145.70;100.00;64261.84;5015887;28;20535;-81
2022/04/06 03:22:23;;;;;;;25.48;10.93;;;;;;;-145.70;100.00;64261.84;5018481;28;20098;-81
2022/04/06 03:24:48;;;;;;;22.50;10.23;;;;;;;-145.70;100.00;64261.84;5018810;28;20061;-81
2022/04/06 03:27:14;;;;;;;18.58;10.20;;;;;;;-145.70;100.00;64261.84;5022272;28;20172;-81
2022/04/06 03:29:42;;;;;;;26.15;10.38;;;;;;;-145.70;100.00;64261.84;5019567;28;20103;-81
2022/04/06 03:32:08;;;;;;;22.35;9.23;;;;;;;-145.70;100.00;64261.84;5014459;28;20049;-81
2022/04/06 03:34:33;;;;;;;27.80;10.43;;;;;;;-145.70;100.00;64261.84;5018539;28;20103;-81
2022/04/06 03:36:59;;;;;;;21.23;9.32;;;;;;;-145.70;100.00;64261.84;5016124;28;20069;-81
2022/04/06 03:39:24;;;;;;;28.48;12.40;;;;;;;-145.70;100.00;64261.84;5019193;28;20072;-81
2022/04/06 03:41:50;;;;;;;22.70;10.13;;;;;;;-145.70;100.00;64261.84;5013129;28;20163;-81
2022/04/06 03:44:15;;;;;;;21.52;9.82;;;;;;;-145.70;100.00;64261.84;5015834;28;20144;-81
2022/04/06 03:46:41;;;;;;;19.35;7.80;;;;;;;-145.70;100.00;64261.84;5018493;28;20199;-81
2022/04/06 03:49:07;;;;;;;19.77;10.15;;;;;;;-145.70;100.00;64261.84;5013849;28;20038;-81
2022/04/06 03:51:32;;;;;;;17.25;7.63;;;;;;;-145.70;100.00;64261.84;5016250;28;20056;-81
2022/04/06 03:53:58;;;;;;;14.70;7.70;;;;;;;-145.70;100.00;64261.84;5010263;28;20037;-82
2022/04/06 03:56:23;;;;;;;19.23;8.77;;;;;;;-145.70;100.00;64261.84;5015577;28;20559;-81
2022/04/06 03:58:49;;;;;;;23.40;9.73;;;;;;;-145.70;100.00;64261.84;5019127;28;20037;-81
2022/04/06 04:01:15;;;;;;;14.45;7.38;;;;;;;-145.70;100.00;64261.84;5017696;28;20735;-81
2022/04/06 04:03:41;;;;;;;17.55;7.57;;;;;;;-145.70;100.00;64261.84;5020000;28;20084;-82
2022/04/06 04:06:06;;;;;;;19.08;6.95;;;;;;;-145.70;100.00;64261.84;5015790;28;20496;-82
2022/04/06 04:08:32;;;;;;;19.88;8.48;;;;;;;-145.70;100.00;64261.84;5024991;28;20131;-81
2022/04/06 04:10:57;;;;;;;17.35;7.00;;;;;;;-145.70;100.00;64261.84;5024025;28;20037;-82
2022/04/06 04:13:23;;;;;;;18.95;8.38;;;;;;;-145.70;100.00;64261.84;5018614;28;20168;-81
2022/04/06 04:15:48;;;;;;;16.08;6.65;;;;;;;-145.70;100.00;64261.84;5022003;28;20042;-81
2022/04/06 04:18:13;;;;;;;20.98;7.20;;;;;;;-145.70;100.00;64261.84;5018259;28;20065;-82
2022/04/06 04:20:41;;;;;;;19.38;8.85;;;;;;;-145.70;100.00;64261.84;5013733;28;20105;-81
2022/04/06 04:23:07;;;;;;;15.35;6.60;;;;;;;-145.70;100.00;64261.84;5017488;28;20187;-82
2022/04/06 04:25:32;;;;;;;20.50;7.35;;;;;;;-145.70;100.00;64261.84;5020994;28;20116;-83
2022/04/06 04:27:58;;;;;;;15.98;6.97;;;;;;;-145.70;100.00;64261.84;5017791;28;20540;-82
2022/04/06 04:30:23;;;;;;;17.75;6.78;;;;;;;-145.70;100.00;64261.84;5020434;28;20053;-82
2022/04/06 04:32:49;;;;;;;13.93;6.55;;;;;;;-145.70;100.00;64261.84;5015097;28;20041;-82
2022/04/06 04:35:14;;;;;;;15.73;6.60;;;;;;;-145.70;100.00;64261.84;5018482;28;20045;-82
2022/04/06 04:37:39;;;;;;;16.33;6.05;;;;;;;-145.70;100.00;64261.84;5017916;28;20561;-83
2022/04/06 04:40:07;;;;;;;14.85;5.57;;;;;;;-145.70;100.00;64261.84;5023200;28;20052;-83
2022/04/06 04:42:32;;;;;;;14.63;6.75;;;;;;;-145.70;100.00;64261.84;5027645;28;20052;-83
2022/04/06 04:44:58;;;;;;;18.20;7.25;;;;;;;-145.70;100.00;64261.84;5031657;28;20045;-82
2022/04/06 04:47:23;;;;;;;18.10;6.93;;;;;;;-145.70;100.00;64261.84;5019857;28;20038;-82
2022/04/06 04:49:49;;;;;;;18.63;5.20;;;;;;;-145.70;100.00;64261.84;5024708;28;20053;-82
2022/04/06 04:52:14;;;;;;;19.92;6.65;;;;;;;-145.70;100.00;64261.84;5013950;28;20045;-81
2022/04/06 04:54:39;;;;;;;12.13;5.05;;;;;;;-145.70;100.00;64261.84;5017737;28;20041;-81
2022/04/06 04:57:08;;;;;;;14.57;5.82;;;;;;;-145.70;100.00;64261.84;5000912;28;20080;-82
2022/04/06 04:59:33;;;;;;;14.20;6.97;;;;;;;-145.70;100.00;64261.84;5011019;28;20098;-81
2022/04/06 05:01:59;;;;;;;18.30;5.40;;;;;;;-145.70;100.00;64261.84;5005981;28;20450;-81
2022/04/06 05:04:24;;;;;;;19.73;7.47;;;;;;;-145.70;100.00;64261.84;5003401;28;20045;-81
2022/04/06 05:06:49;;;;;;;11.80;6.03;;;;;;;-145.70;100.00;64261.84;5008289;28;20049;-82
2022/04/06 05:09:15;;;;;;;20.80;6.05;;;;;;;-145.70;100.00;64261.84;5007943;28;20087;-82
2022/04/06 05:11:40;;;;;;;15.98;5.18;;;;;;;-145.70;100.00;64261.84;5001262;28;20140;-82
2022/04/06 05:14:06;;;;;;;13.73;4.68;;;;;;;-145.70;100.00;64261.84;4998577;28;20049;-82
2022/04/06 05:16:32;;;;;;;15.20;5.50;;;;;;;-145.70;100.00;64261.84;5003246;28;20490;-82
2022/04/06 05:18:58;;;;;;;18.77;6.05;;;;;;;-145.70;100.00;64261.84;4996252;28;20057;-82
2022/04/06 05:21:23;;;;;;;14.98;5.82;;;;;;;-145.70;100.00;64261.84;4997615;28;20047;-82
2022/04/06 05:23:49;;;;;;;14.13;5.50;;;;;;;-145.70;100.00;64261.84;5001615;28;20052;-82
2022/04/06 05:26:14;;;;;;;15.63;6.13;;;;;;;-145.70;100.00;64261.84;5003906;28;20521;-82
2022/04/06 05:28:39;;;;;;;15.80;5.53;;;;;;;-145.70;100.00;64261.84;5000202;28;20046;-82
2022/04/06 05:31:05;;;;;;;13.63;5.32;;;;;;;-145.70;100.00;64261.84;5001643;28;20088;-82
2022/04/06 05:33:30;;;;;;;13.73;4.63;;;;;;;-145.70;100.00;64261.84;4999434;28;20085;-82
2022/04/06 05:35:56;;;;;;;14.50;5.43;;;;;;;-145.70;100.00;64261.84;5011806;28;20037;-82
2022/04/06 05:38:21;;;;;;;11.55;4.28;;;;;;;-145.70;100.00;64261.84;5014459;28;20071;-82
2022/04/06 05:40:46;;;;;;;14.52;4.80;;;;;;;-145.70;100.00;64261.84;5028580;28;20050;-82
2022/04/06 05:43:12;;;;;;;11.93;4.20;;;;;;;-145.70;100.00;64261.84;5014511;28;20513;-81
2022/04/06 05:45:37;;;;;;;13.00;4.72;;;;;;;-145.70;100.00;64261.84;5022509;28;20069;-81
2022/04/06 05:48:04;;;;;;;13.95;4.05;;;;;;;-145.70;100.00;64261.84;5011710;28;20073;-81
2022/04/06 05:50:30;;;;;;;13.55;4.15;;;;;;;-145.70;100.00;64261.84;5015639;28;20100;-82
2022/04/06 05:52:55;;;;;;;11.05;3.47;;;;;;;-145.70;100.00;64261.84;5019717;28;20045;-82
2022/04/06 05:55:21;;;;;;;13.35;3.90;;;;;;;-145.70;100.00;64261.84;5022250;28;20053;-83
2022/04/06 05:57:46;;;;;;;14.35;4.57;;;;;;;-145.70;100.00;64261.84;5020473;28;20111;-82
2022/04/06 06:00:13;;;;;;;12.57;4.28;;;;;;;-145.70;100.00;64261.84;5017488;28;20123;-83
2022/04/06 06:02:38;;;;;;;13.05;3.53;;;;;;;-145.70;100.00;64261.84;5015427;28;20277;-83
2022/04/06 06:05:04;;;;;;;12.23;4.03;;;;;;;-145.70;100.00;64261.84;5006387;28;20122;-83
2022/04/06 06:07:29;;;;;;;12.52;3.72;;;;;;;-145.70;100.00;64261.84;5017416;28;20038;-82
2022/04/06 06:09:56;;;;;;;10.90;3.42;;;;;;;-145.70;100.00;64261.84;5021749;28;20064;-83
2022/04/06 06:12:21;;;;;;;12.95;4.20;;;;;;;-145.70;100.00;64261.84;5016798;28;20141;-83
2022/04/06 06:14:47;;;;;;;14.82;4.10;;;;;;;-145.70;100.00;64261.84;5014323;28;20132;-83
2022/04/06 06:17:12;;;;;;;10.25;3.88;;;;;;;-145.70;100.00;64261.84;5023121;28;20046;-82
2022/04/06 06:19:37;;;;;;;12.45;3.55;;;;;;;-145.70;100.00;64261.84;5017279;28;20041;-83
2022/04/06 06:22:04;;;;;;;13.18;4.65;;;;;;;-145.70;100.00;64261.84;5015899;28;20067;-83
2022/04/06 06:24:29;;;;;;;16.73;5.18;;;;;;;-145.70;100.00;64261.84;5017798;28;20046;-83
2022/04/06 06:26:55;;;;;;;14.05;5.28;;;;;;;-145.70;100.00;64261.84;5010893;28;20049;-83
2022/04/06 06:29:21;;;;;;;11.77;4.20;;;;;;;-145.70;100.00;64261.84;5001089;28;20046;-83
2022/04/06 06:31:46;;;;;;;15.65;5.05;;;;;;;-145.70;100.00;64261.84;5019250;28;20054;-83
2022/04/06 06:34:12;;;;;;;13.40;4.50;;;;;;;-145.70;100.00;64261.84;5018946;28;20041;-83
2022/04/06 06:36:37;;;;;;;12.93;5.47;;;;;;;-145.70;100.00;64261.84;5018824;28;20044;-82
2022/04/06 06:39:03;;;;;;;16.10;4.65;;;;;;;-145.70;100.00;64261.84;5015422;28;20501;-84
2022/04/06 06:41:29;;;;;;;11.13;5.47;;;;;;;-145.70;100.00;64261.84;5012634;28;20084;-83
2022/04/06 06:43:56;;;;;;;13.00;5.40;;;;;;;-145.70;100.00;64261.84;5017323;28;20042;-84
2022/04/06 06:46:22;;;;;;;11.02;4.45;;;;;;;-145.70;100.00;64261.84;5017494;28;20037;-84
2022/04/06 06:48:48;;;;;;;12.07;5.88;;;;;;;-145.70;100.00;64261.84;5014956;28;20060;-84
2022/04/06 06:51:15;;;;;;;16.98;5.60;;;;;;;-145.70;100.00;64261.84;5017535;28;20057;-84
2022/04/06 06:53:41;;;;;;;14.65;5.45;;;;;;;-145.70;100.00;64261.84;5011568;28;20049;-84
2022/04/06 06:56:07;;;;;;;15.40;4.88;;;;;;;-145.70;100.00;64261.84;5015413;28;20030;-83
2022/04/06 06:58:32;;;;;;;12.88;5.43;;;;;;;-145.70;100.00;64261.84;5012117;28;20436;-83
2022/04/06 07:00:58;;;;;;;14.48;6.18;;;;;;;-145.70;100.00;64261.84;5017154;28;20050;-83
2022/04/06 07:03:23;;;;;;;13.48;5.65;;;;;;;-145.70;100.00;64261.84;5014115;28;20058;-84
2022/04/06 07:05:49;;;;;;;13.23;5.43;;;;;;;-145.70;100.00;64261.84;5014769;28;20053;-84
2022/04/06 07:08:14;;;;;;;13.60;4.90;;;;;;;-145.70;100.00;64261.84;5013149;28;20033;-84
2022/04/06 07:10:44;;;;;;;10.75;4.75;;;;;;;-145.70;100.00;64261.84;5017612;28;20115;-84
2022/04/06 07:13:16;;;;;;;9.30;4.75;;;;;;;-145.70;100.00;64261.84;5029623;28;20121;-83
2022/04/06 07:15:44;;;;;;;14.93;5.55;;;;;;;-145.70;100.00;64261.84;5010094;28;20097;-84
2022/04/06 07:18:11;;;;;;;13.48;6.18;;;;;;;-145.70;100.00;64261.84;5017233;28;20040;-84
2022/04/06 07:20:37;;;;;;;10.75;4.80;;;;;;;-145.70;100.00;64261.84;5018972;28;20048;-84
2022/04/06 07:23:03;;;;;;;12.77;5.00;;;;;;;-145.70;100.00;64261.84;5016769;28;20409;-84
2022/04/06 07:25:29;;;;;;;11.05;4.90;;;;;;;-145.70;100.00;64261.84;5021558;28;20083;-84
2022/04/06 07:27:54;;;;;;;14.52;4.80;;;;;;;-145.70;100.00;64261.84;5017439;28;20065;-84
2022/04/06 07:30:20;;;;;;;14.70;6.28;;;;;;;-145.70;100.00;64261.84;5013633;28;20648;-84
2022/04/06 07:32:45;;;;;;;14.75;5.68;;;;;;;-145.70;100.00;64261.84;5017413;28;20038;-84
2022/04/06 07:35:11;;;;;;;11.73;4.65;;;;;;;-145.70;100.00;64261.84;5013180;28;20421;-84
2022/04/06 07:37:36;;;;;;;11.63;5.20;;;;;;;-145.70;100.00;64261.84;5022163;28;20489;-84
2022/04/06 07:40:02;;;;;;;16.00;5.10;;;;;;;-145.70;100.00;64261.84;5012348;28;20037;-84
2022/04/06 07:42:28;;;;;;;14.52;4.80;;;;;;;-145.70;100.00;64261.84;5008630;28;20053;-84
2022/04/06 07:44:53;;;;;;;13.82;5.70;;;;;;;-145.70;100.00;64261.84;5016692;28;20132;-84
2022/04/06 07:47:18;;;;;;;11.15;4.25;;;;;;;-145.70;100.00;64261.84;5020086;28;20496;-84
2022/04/06 07:49:44;;;;;;;8.40;3.08;;;;;;;-145.70;100.00;64261.84;5009620;28;20052;-84
2022/04/06 07:52:12;;;;;;;11.18;4.50;;;;;;;-145.70;100.00;64261.84;5014023;28;20046;-84
2022/04/06 07:54:37;;;;;;;10.60;4.18;;;;;;;-145.70;100.00;64261.84;5014913;28;20045;-84
2022/04/06 07:57:03;;;;;;;12.02;3.72;;;;;;;-145.70;100.00;64261.84;5015826;28;20493;-84
2022/04/06 07:59:28;;;;;;;11.25;3.47;;;;;;;-145.70;100.00;64261.84;5015987;28;20046;-84
2022/04/06 08:01:54;;;;;;;8.80;3.40;;;;;;;-145.70;100.00;64261.84;5004458;28;20048;-84
2022/04/06 08:04:19;;;;;;;10.52;3.60;;;;;;;-145.70;100.00;64261.84;5009780;28;20136;-84
2022/04/06 08:06:45;;;;;;;9.85;3.60;;;;;;;-145.70;100.00;64261.84;5017423;28;20034;-83
2022/04/06 08:09:11;;;;;;;8.13;2.70;;;;;;;-145.70;100.00;64261.84;5030772;28;20037;-84
2022/04/06 08:11:37;;;;;;;9.38;2.97;;;;;;;-145.70;100.00;64261.84;5022382;28;20044;-85
2022/04/06 08:14:03;;;;;;;10.95;2.83;;;;;;;-145.70;100.00;64261.84;5020290;28;20140;-84
2022/04/06 08:16:28;;;;;;;11.00;3.35;;;;;;;-145.70;100.00;64261.84;5018372;28;20378;-84
2022/04/06 08:18:54;;;;;;;8.18;2.65;;;;;;;-145.70;100.00;64261.84;5022969;28;20038;-84
2022/04/06 08:21:19;;;;;;;9.25;2.88;;;;;;;-145.70;100.00;64261.84;5014660;28;20555;-84
2022/04/06 08:23:44;;;;;;;6.93;2.80;;;;;;;-145.70;100.00;64261.84;5022721;28;20091;-84
2022/04/06 08:26:10;;;;;;;6.80;2.90;;;;;;;-145.70;100.00;64261.84;5023771;28;20075;-85
2022/04/06 08:28:36;;;;;;;4.45;2.33;;;;;;;-145.70;100.00;64261.84;5024649;28;20458;-84
2022/04/06 08:31:01;;;;;;;9.18;3.08;;;;;;;-145.70;100.00;64261.84;5029428;28;20113;-84
2022/04/06 08:33:27;;;;;;;6.65;2.28;;;;;;;-145.70;100.00;64261.84;5035063;28;20045;-84
2022/04/06 08:35:52;;;;;;;5.70;2.08;;;;;;;-145.70;100.00;64261.84;5025914;28;20049;-84
2022/04/06 08:38:18;;;;;;;6.15;2.72;;;;;;;-145.70;100.00;64261.84;5023101;28;20037;-84
2022/04/06 08:40:44;;;;;;;7.72;3.40;;;;;;;-145.70;100.00;64261.84;5020752;28;20063;-84
2022/04/06 08:43:11;;;;;;;9.90;3.75;;;;;;;-145.70;100.00;64261.84;5023179;28;20080;-83
2022/04/06 08:45:38;;;;;;;8.35;3.30;;;;;;;-145.70;100.00;64261.84;5019133;28;20132;-84
2022/04/06 08:48:06;;;;;;;7.68;2.97;;;;;;;-145.70;100.00;64261.84;5013722;28;20052;-84
2022/04/06 08:50:32;;;;;;;8.77;3.30;;;;;;;-145.70;100.00;64261.84;5018970;28;20724;-84
2022/04/06 08:52:59;;;;;;;8.00;3.08;;;;;;;-145.70;100.00;64261.84;5024766;28;20045;-84
2022/04/06 08:55:24;;;;;;;9.13;3.10;;;;;;;-145.70;100.00;64261.84;5033837;28;20612;-84
2022/04/06 08:57:50;;;;;;;11.90;3.05;;;;;;;-145.70;100.00;64261.84;5015783;28;20042;-84
2022/04/06 09:00:17;;;;;;;6.70;3.03;;;;;;;-145.70;100.00;64261.84;5014337;28;20385;-84
2022/04/06 09:02:43;;;;;;;10.02;2.63;;;;;;;-145.70;100.00;64261.84;5014731;28;20109;-84
2022/04/06 09:05:10;;;;;;;9.02;2.38;;;;;;;-145.70;100.00;64261.84;5015615;28;20037;-84
2022/04/06 09:07:39;;;;;;;9.25;2.58;;;;;;;-145.70;100.00;64261.84;5017197;28;20041;-84
2022/04/06 09:10:05;;;;;;;8.98;2.78;;;;;;;-145.70;100.00;64261.84;5027589;28;20431;-84
2022/04/06 09:12:30;;;;;;;6.68;2.90;;;;;;;-145.70;100.00;64261.84;5017710;28;20057;-84
2022/04/06 09:15:07;;;;;;;5.95;3.05;;;;;;;-145.70;100.00;64261.84;5025203;28;20489;-83
2022/04/06 09:17:44;;;;;;;9.35;2.65;;;;;;;-145.70;100.00;64261.84;5019116;28;20075;-84
2022/04/06 09:20:10;;;;;;;6.10;2.70;;;;;;;-145.70;100.00;64261.84;5015958;28;20405;-84
2022/04/06 09:22:37;;;;;;;9.57;3.28;;;;;;;-145.70;100.00;64261.84;5023075;28;20569;-84
2022/04/06 09:25:05;;;;;;;6.38;3.00;;;;;;;-145.70;100.00;64261.84;5016603;28;20046;-84
2022/04/06 09:27:31;;;;;;;11.00;4.60;;;;;;;-145.70;100.00;64261.84;5026349;28;20037;-84
2022/04/06 09:29:57;;;;;;;8.55;3.97;;;;;;;-145.70;100.00;64261.84;5020596;28;20124;-84
2022/04/06 09:32:23;;;;;;;10.85;4.72;;;;;;;-145.70;100.00;64261.84;5033566;28;20045;-84
2022/04/06 09:34:49;;;;;;;11.50;5.03;;;;;;;-145.70;100.00;64261.84;5017757;28;20493;-83
2022/04/06 09:37:24;;;;;;;11.30;4.95;;;;;;;-145.70;100.00;64261.84;5019494;28;20105;-83
2022/04/06 09:39:50;;;;;;;10.10;5.25;;;;;;;-145.70;100.00;64261.84;5012012;28;20046;-85
2022/04/06 09:42:24;;;;;;;14.68;5.72;;;;;;;-145.70;100.00;64261.84;5010572;28;20064;-84
2022/04/06 09:47:39;;;;;;;12.02;5.57;;;;;;;-145.70;100.00;64261.84;4995405;28;20049;-84
2022/04/06 09:50:19;;;;;;;9.07;5.95;;;;;;;-145.70;100.00;64261.84;5000319;28;20070;-84
2022/04/06 09:52:46;;;;;;;11.10;5.65;;;;;;;-145.70;100.00;64261.84;5007075;28;20135;-84
2022/04/06 09:55:14;;;;;;;9.93;5.47;;;;;;;-145.70;100.00;64261.84;5018304;28;20153;-84
2022/04/06 09:57:42;;;;;;;12.02;6.97;;;;;;;-145.70;100.00;64261.84;5027567;28;20406;-84
2022/04/06 10:00:10;;;;;;;12.55;6.72;;;;;;;-145.70;100.00;64261.84;5025284;28;20127;-84
2022/04/06 10:02:36;;;;;;;14.15;8.02;;;;;;;-145.70;100.00;64261.84;5012888;28;20068;-85
2022/04/06 10:05:03;;;;;;;11.25;6.57;;;;;;;-145.70;100.00;64261.84;5021099;28;20125;-84
2022/04/06 10:07:29;;;;;;;16.17;7.15;;;;;;;-145.70;100.00;64261.84;5010637;28;20476;-84
2022/04/06 10:09:56;;;;;;;11.65;5.65;;;;;;;-145.70;100.00;64261.84;5017550;28;20046;-84
2022/04/06 10:12:23;;;;;;;12.10;6.22;;;;;;;-145.70;100.00;64261.84;5016641;28;20247;-83
2022/04/06 10:14:49;;;;;;;10.80;6.60;;;;;;;-145.70;100.00;64261.84;5012838;28;20038;-84
2022/04/06 10:17:14;;;;;;;12.75;7.53;;;;;;;-145.70;100.00;64261.84;5013861;28;20048;-83
2022/04/06 10:19:47;;;;;;;15.43;6.47;;;;;;;-145.70;100.00;64261.84;5021860;28;20501;-83
2022/04/06 10:23:00;;;;;;;13.65;6.55;;;;;;;-145.70;100.00;64261.84;4999195;28;20133;-83
2022/04/06 10:25:35;;;;;;;14.73;7.38;;;;;;;-145.70;100.00;64261.84;4989931;28;20054;-84
2022/04/06 10:28:09;;;;;;;14.10;7.57;;;;;;;-145.70;100.00;64261.84;5019277;28;20048;-83
2022/04/06 10:30:35;;;;;;;12.65;7.35;;;;;;;-145.70;100.00;64261.84;5017579;28;20578;-83
2022/04/06 10:33:02;;;;;;;18.70;7.93;;;;;;;-145.70;100.00;64261.84;5036437;28;20038;-83
2022/04/06 10:35:35;;;;;;;14.07;9.80;;;;;;;-145.70;100.00;64261.84;5020835;28;20490;-83
2022/04/06 10:38:03;;;;;;;15.52;7.43;;;;;;;-145.70;100.00;64261.84;5017863;28;20046;-84
2022/04/06 10:40:49;;;;;;;13.40;6.78;;;;;;;-145.70;100.00;64261.84;5017230;28;20042;-84
2022/04/06 10:43:40;;;;;;;17.88;9.50;;;;;;;-145.70;100.00;64261.84;5030506;28;20034;-84
2022/04/06 10:46:10;;;;;;;18.33;8.95;;;;;;;-145.70;100.00;64261.84;5023667;28;20083;-84
2022/04/06 10:48:56;;;;;;;14.90;8.90;;;;;;;-145.70;100.00;64261.84;4992075;28;20636;-84
2022/04/06 10:51:34;;;;;;;18.48;10.27;;;;;;;-145.70;100.00;64261.84;4995028;28;20052;-84
2022/04/06 10:54:19;;;;;;;13.00;8.18;;;;;;;-145.70;100.00;64261.84;5000297;28;20391;-84
2022/04/06 10:56:54;;;;;;;17.20;7.63;;;;;;;-145.70;100.00;64261.84;4981465;28;20064;-84
2022/04/06 10:59:23;;;;;;;17.38;9.57;;;;;;;-145.70;100.00;64261.84;5004902;28;20038;-84
2022/04/06 11:02:09;;;;;;;16.88;9.18;;;;;;;-145.70;100.00;64261.84;5005179;28;20121;-84
2022/04/06 11:04:41;;;;;;;15.98;10.15;;;;;;;-145.70;100.00;64261.84;5021997;28;20057;-84